Aérodrome :
LOGIN :

S'inscrire | Disclaimer

   EN    FR    IT 

 










Légende :    VFR   VFR Marginal   IFR   IFR Intensif   IFR Très Intensif
Visi : 
Plafond : 
>= 8 km
>= 3000ft
5 à 8 km
1000 à 3000 ft
1500m à 5 km
500 à 1000 ft
800 à 1500m
200 à 500 ft
< 800m
< 200 ft
Symboles :   Orages  Brouillard  Fortes neiges  Fortes précipitations  Vent > 20 kt
SIGMETs :   Divers  Orages  Givrage  Turbulence  Onde Orograph.  Cendres Volcan.







- Altitude de l'aérodrome : 353 ft
- Code IATA : ZAG


LDZA - Zagreb Pleso

DERNIER METAR :
  • 231630Z 36009KT 320V060 9999 -RA NSC 11/05 Q1012 NOSIG

METARs EXPIRÉS :
  • 231600Z 35011G22KT 310V050 9999 -RA NSC 11/05 Q1012 NOSIG
  • 231530Z 01007KT 320V040 9999 -RA NSC 11/05 Q1012 NOSIG
  • 231500Z 35013KT 320V050 9999 -RA NSC 11/05 Q1012 NOSIG
  • 231430Z 33004KT 9999 -RA NSC 11/07 Q1011 BECMG 35015KT
  • 231400Z VRB03KT 9999 -RA NSC 11/07 Q1011 BECMG 35015KT

TAF AMD TAF LDZA
Valide du 23 à 16h jusqu'au 24 à 12h UTC


231603Z 2316/2412 01015KT 9999 BKN040 TX13/2411Z TN07/2404Z
TEMPO 2316/2409 01015G30KT
ATIS : +385 1 6-259-214
Pas de NOTAMs connus pour ce terrain.
1 SIGMET publié pour la FIR Zagreb (LDZO) :
 
Turbulence forte
LDZO SIGMET 10 VALID 231400/231800 LDZA
LDZO ZAGREB FIR SEV TURB FCST WI N4514 E01450 - N4224 E01829 - N4206 E01827 - N4406 E01441 - N4514 E01450 TOP FL060 STNR NC=



MET'MAP, la Météo Aéronautique d'un coup d'oeil ! - Copyright ORBIFLY Décembre 2007 - Disclaimer

ORBIFLY MET'MAP TEAM :

Programmation & Développement : Alexandra Zaïnal
Conception & Développement : Baudouin d'Aumeries
Co-Programmation & Développement : Marc-Olivier Méhu
Soutien technique & logistique : Manuel Goepfert

Contact : metmap@orbifly.com




SOURCES & CREDITS :

   NOAA